KCUH/CUH METAR and TAF weather

Enter ICAO airport designator
Station Type Date Time Source
KCUH METAR 2022/11/26 08:55 UTC NOAA

KCUH 260855Z AUTO 00000KT 7SM OVC025 08/02 A3010 RMK AO2 T00750020


Station Type Date Time Source
KCUH Decoded METAR 2022/11/26 08:55 UTC NOAA

Cushing, Cushing Municipal Airport, OK, United States (KCUH) 35-56-59N 096-46-22W
Nov 26, 2022 - 03:55 AM EST / 2022.11.26 0855 UTC
Wind: Calm:0
Visibility: 7 mile(s):0
Sky conditions: overcast
Temperature: 45.5 F (7.5 C)
Dew Point: 35.6 F (2.0 C)
Relative Humidity: 68%
Pressure (altimeter): 30.1 in. Hg (1019 hPa)
ob: KCUH 260855Z AUTO 00000KT 7SM OVC025 08/02 A3010 RMK AO2 T00750020
cycle: 9

Station Type Date Time Source
KCUH TAF UTC NOAA

Error!

Example: see airport list